Time;durP1;ratioP1;P1;durP2;ratioP2;P2;SDS_P1;SDS_P2;PMS_P1;PMS_P2;Temp;Humidity;BMP_temperature;BMP_pressure;BME280_temperature;BME280_humidity;BME280_pressure;Samples;Min_cycle;Max_cycle;Signal;HPM_P1;HPM_P2
2021/03/09 00:01:35;;;;;;;47.77;24.20;;;77.10;1587.20;;;;;;5032212;28;20056;-78
2021/03/09 00:04:01;;;;;;;81.20;35.42;;;77.20;1561.60;;;;;;5033610;28;20032;-78
2021/03/09 00:06:27;;;;;;;102.57;45.10;;;77.20;1638.40;;;;;;5032258;28;20038;-78
2021/03/09 00:08:53;;;;;;;124.43;53.47;;;77.10;1612.80;;;;;;5033574;28;20028;-78
2021/03/09 00:11:18;;;;;;;137.03;60.80;;;77.00;1587.20;;;;;;5032209;28;20025;-78
2021/03/09 00:13:44;;;;;;;182.70;75.10;;;77.10;1587.20;;;;;;5033706;28;20026;-77
2021/03/09 00:16:10;;;;;;;203.07;85.10;;;77.10;1561.60;;;;;;5033433;28;20447;-78
2021/03/09 00:18:36;;;;;;;158.33;70.30;;;77.10;1587.20;;;;;;5032228;28;20099;-78
2021/03/09 00:21:02;;;;;;;116.73;51.93;;;77.00;1587.20;;;;;;5033392;28;20091;-77
2021/03/09 00:23:28;;;;;;;83.77;40.53;;;77.00;1561.60;;;;;;5033404;28;20477;-78
2021/03/09 00:25:54;;;;;;;53.83;27.63;;;77.00;1612.80;;;;;;5033318;28;20072;-74
2021/03/09 00:28:20;;;;;;;51.97;27.93;;;77.00;1587.20;;;;;;5032036;28;20385;-75
2021/03/09 00:30:46;;;;;;;52.77;29.23;;;76.80;1612.80;;;;;;5031731;28;20026;-74
2021/03/09 00:33:12;;;;;;;39.55;23.33;;;76.90;1587.20;;;;;;5031883;28;20597;-75
2021/03/09 00:35:38;;;;;;;38.07;22.00;;;76.90;1638.40;;;;;;5032576;28;20111;-75
2021/03/09 00:38:04;;;;;;;38.27;21.47;;;76.90;1536.00;;;;;;5032661;28;20087;-75
2021/03/09 00:40:30;;;;;;;32.43;18.97;;;76.90;1587.20;;;;;;5033333;28;20026;-75
2021/03/09 00:42:55;;;;;;;30.40;18.40;;;77.00;1587.20;;;;;;5032780;28;20469;-78
2021/03/09 00:45:21;;;;;;;36.63;19.63;;;76.90;1664.00;;;;;;5035678;28;20118;-78
2021/03/09 00:47:48;;;;;;;34.43;19.80;;;76.90;1561.60;;;;;;5036992;28;20033;-78
2021/03/09 00:50:14;;;;;;;38.77;19.87;;;76.90;1638.40;;;;;;5035148;28;20033;-78
2021/03/09 00:52:40;;;;;;;61.60;28.10;;;76.80;1664.00;;;;;;5036412;28;20033;-75
2021/03/09 00:55:06;;;;;;;197.10;90.23;;;76.90;1664.00;;;;;;5035544;28;20048;-78
2021/03/09 00:57:32;;;;;;;123.77;59.23;;;76.80;1664.00;;;;;;5035558;28;20382;-78
2021/03/09 00:59:58;;;;;;;157.07;71.47;;;76.80;1612.80;;;;;;5035341;28;20489;-78
2021/03/09 01:02:24;;;;;;;180.07;82.63;;;76.80;1612.80;;;;;;5035533;28;20040;-78
2021/03/09 01:04:50;;;;;;;177.10;82.63;;;76.80;1612.80;;;;;;5035354;28;20029;-78
2021/03/09 01:07:16;;;;;;;141.43;64.27;;;52.10;1689.60;;;;;;5036647;28;20037;-75
2021/03/09 01:09:42;;;;;;;42.77;22.10;;;51.90;1689.60;;;;;;5035520;28;20060;-80
2021/03/09 01:12:08;;;;;;;28.10;17.87;;;52.00;1664.00;;;;;;5036833;28;20029;-77
2021/03/09 01:14:34;;;;;;;55.10;28.50;;;51.90;1638.40;;;;;;5036997;28;20064;-82
2021/03/09 01:16:59;;;;;;;44.17;23.80;;;51.90;1638.40;;;;;;5035586;28;20065;-84
2021/03/09 01:19:25;;;;;;;43.67;24.53;;;51.80;1689.60;;;;;;5035571;28;20477;-80
2021/03/09 01:21:51;;;;;;;77.40;42.73;;;51.90;1689.60;;;;;;5035501;28;20064;-81
2021/03/09 01:24:17;;;;;;;30.33;18.80;;;51.70;1766.40;;;;;;5036837;28;20504;-82
2021/03/09 01:26:43;;;;;;;31.80;19.73;;;51.60;1715.20;;;;;;5036894;28;20033;-81
2021/03/09 01:29:09;;;;;;;30.47;18.73;;;51.60;1740.80;;;;;;5036709;28;20022;-74
2021/03/09 01:31:35;;;;;;;32.40;17.67;;;51.70;1715.20;;;;;;5035072;28;20025;-85
2021/03/09 01:34:00;;;;;;;32.57;18.97;;;51.60;1792.00;;;;;;5035044;28;20032;-83
2021/03/09 01:36:26;;;;;;;34.40;19.20;;;51.50;1766.40;;;;;;5028087;28;20097;-85
2021/03/09 01:38:53;;;;;;;36.90;21.00;;;51.60;1689.60;;;;;;5019964;28;20049;-84
2021/03/09 01:41:19;;;;;;;26.43;16.40;;;51.60;1740.80;;;;;;5036160;28;20036;-85
2021/03/09 01:43:45;;;;;;;40.93;22.77;;;51.70;1664.00;;;;;;5036610;28;20108;-85
2021/03/09 01:46:12;;;;;;;24.53;14.63;;;51.60;1740.80;;;;;;5035252;28;20508;-85
2021/03/09 01:48:43;;;;;;;25.47;14.27;;;51.70;1664.00;;;;;;5036286;28;20029;-73
2021/03/09 01:51:12;;;;;;;23.83;14.80;;;51.70;1638.40;;;;;;5035040;28;20025;-78
2021/03/09 01:53:38;;;;;;;49.73;26.63;;;51.70;1715.20;;;;;;5034913;28;20428;-73
2021/03/09 01:56:04;;;;;;;59.10;30.63;;;51.70;1587.20;;;;;;5035467;28;20036;-73
2021/03/09 01:58:33;;;;;;;81.07;40.53;;;51.80;1638.40;;;;;;5036067;28;20021;-73
2021/03/09 02:00:59;;;;;;;111.93;50.37;;;51.80;1612.80;;;;;;5035907;28;20429;-85
2021/03/09 02:03:25;;;;;;;114.60;57.20;;;51.80;1587.20;;;;;;5036367;28;20021;-74
2021/03/09 02:05:51;;;;;;;99.97;48.00;;;51.80;1638.40;;;;;;5033890;28;20466;-85
2021/03/09 02:08:17;;;;;;;129.47;66.50;;;51.70;1689.60;;;;;;5034447;28;20555;-73
2021/03/09 02:10:43;;;;;;;101.23;50.40;;;51.80;1638.40;;;;;;5016014;28;20025;-73
2021/03/09 02:13:28;;;;;;;74.23;38.77;;;51.80;1587.20;;;;;;5014736;28;20026;-73
2021/03/09 02:16:16;;;;;;;75.73;36.53;;;51.80;1536.00;;;;;;5015798;28;20030;-73
2021/03/09 02:19:00;;;;;;;90.63;45.97;;;51.80;1561.60;;;;;;5028607;28;20021;-85
2021/03/09 02:21:53;;;;;;;86.50;43.00;;;51.70;1638.40;;;;;;5034293;28;20025;-73
2021/03/09 02:24:22;;;;;;;93.60;42.25;;;51.60;1612.80;;;;;;5034305;28;20029;-73
2021/03/09 02:27:03;;;;;;;104.83;49.40;;;51.60;1612.80;;;;;;5034043;28;20034;-73
2021/03/09 02:29:41;;;;;;;99.37;43.87;;;51.70;1561.60;;;;;;5035682;28;20022;-73
2021/03/09 02:32:12;;;;;;;112.07;50.57;;;51.70;1587.20;;;;;;5035154;28;20064;-73
2021/03/09 02:34:53;;;;;;;96.40;44.47;;;51.60;1587.20;;;;;;5033890;28;20022;-74
2021/03/09 02:37:22;;;;;;;62.73;29.60;;;51.50;1638.40;;;;;;5033849;28;20049;-73
2021/03/09 02:39:49;;;;;;;39.20;19.60;;;51.50;1612.80;;;;;;5035071;28;20048;-73
2021/03/09 02:42:24;;;;;;;27.23;15.37;;;51.50;1561.60;;;;;;5033752;28;20109;-73
2021/03/09 02:44:56;;;;;;;32.07;17.43;;;51.40;1664.00;;;;;;5035199;28;20029;-73
2021/03/09 02:47:24;;;;;;;27.10;15.27;;;51.50;1587.20;;;;;;5033840;28;20043;-73
2021/03/09 02:49:52;;;;;;;18.23;11.50;;;51.60;1510.40;;;;;;5033546;28;20026;-73
2021/03/09 02:52:21;;;;;;;22.00;14.50;;;51.60;1587.20;;;;;;5033653;28;20032;-73
2021/03/09 02:54:50;;;;;;;18.00;11.63;;;51.50;1638.40;;;;;;5033572;28;20083;-73
2021/03/09 02:57:17;;;;;;;20.20;11.83;;;51.50;1536.00;;;;;;5034800;28;20025;-73
2021/03/09 02:59:45;;;;;;;19.57;11.77;;;51.50;1587.20;;;;;;5033465;28;20040;-73
2021/03/09 03:02:16;;;;;;;19.67;11.80;;;51.50;1612.80;;;;;;5033172;28;20052;-85
2021/03/09 03:04:45;;;;;;;19.30;11.67;;;51.30;1638.40;;;;;;5034566;28;20478;-73
2021/03/09 03:07:12;;;;;;;22.17;12.90;;;51.30;1638.40;;;;;;5033613;28;20524;-85
2021/03/09 03:09:39;;;;;;;22.80;13.53;;;51.20;1612.80;;;;;;5033468;28;20037;-73
2021/03/09 03:12:07;;;;;;;23.60;13.47;;;26.50;1638.40;;;;;;5033119;28;20033;-73
2021/03/09 03:14:35;;;;;;;20.43;14.30;;;26.40;1664.00;;;;;;5033839;28;20021;-73
2021/03/09 03:17:02;;;;;;;20.17;13.17;;;26.40;1715.20;;;;;;5033095;28;20115;-73
2021/03/09 03:19:31;;;;;;;25.20;13.70;;;26.30;1689.60;;;;;;5034338;28;20100;-73
2021/03/09 03:21:58;;;;;;;20.40;12.47;;;26.30;1638.40;;;;;;5034329;28;20025;-74
2021/03/09 03:24:26;;;;;;;25.07;13.53;;;26.20;1664.00;;;;;;5033044;28;20057;-73
2021/03/09 03:26:52;;;;;;;20.17;12.23;;;26.20;1715.20;;;;;;5032899;28;20046;-73
2021/03/09 03:29:20;;;;;;;19.20;12.37;;;26.10;1689.60;;;;;;5034111;28;20043;-73
2021/03/09 03:31:48;;;;;;;24.83;13.37;;;26.10;1664.00;;;;;;5034418;28;20108;-73
2021/03/09 03:34:15;;;;;;;26.23;14.50;;;26.00;1664.00;;;;;;5034357;28;20026;-73
2021/03/09 03:36:41;;;;;;;34.63;18.03;;;26.10;1664.00;;;;;;5032810;28;20148;-73
2021/03/09 03:39:07;;;;;;;45.20;23.17;;;26.10;1612.80;;;;;;5034238;28;20132;-74
2021/03/09 03:41:34;;;;;;;64.03;29.53;;;26.10;1664.00;;;;;;5033966;28;20061;-74
2021/03/09 03:44:00;;;;;;;65.77;31.00;;;26.10;1664.00;;;;;;5032691;28;20025;-73
2021/03/09 03:46:26;;;;;;;75.73;34.10;;;26.00;1638.40;;;;;;5032716;28;20038;-73
2021/03/09 03:48:52;;;;;;;69.53;34.67;;;26.00;1612.80;;;;;;5032637;28;20072;-85
2021/03/09 03:51:21;;;;;;;93.83;42.83;;;26.00;1638.40;;;;;;5033843;28;20037;-73
2021/03/09 03:53:59;;;;;;;114.07;49.67;;;26.00;1612.80;;;;;;5033816;28;20025;-73
2021/03/09 03:56:57;;;;;;;119.77;57.13;;;26.00;1638.40;;;;;;5032686;28;20037;-73
2021/03/09 03:59:36;;;;;;;136.67;61.83;;;26.00;1664.00;;;;;;5030988;28;20067;-85
2021/03/09 04:02:08;;;;;;;145.67;69.83;;;25.80;1740.80;;;;;;5033526;28;20116;-73
2021/03/09 04:04:36;;;;;;;143.13;65.20;;;25.80;1689.60;;;;;;5032510;28;20036;-73
2021/03/09 04:07:06;;;;;;;120.77;57.67;;;25.80;1740.80;;;;;;5033816;28;20033;-73
2021/03/09 04:09:32;;;;;;;125.37;56.33;;;25.70;1664.00;;;;;;5032409;28;20029;-73
2021/03/09 04:12:01;;;;;;;165.17;73.37;;;25.70;1766.40;;;;;;5033940;28;20052;-73
2021/03/09 04:14:31;;;;;;;160.93;71.83;;;25.80;1664.00;;;;;;5031917;28;20057;-73
2021/03/09 04:16:59;;;;;;;137.60;58.87;;;25.90;1638.40;;;;;;5033652;28;20025;-73
2021/03/09 04:19:26;;;;;;;145.60;60.63;;;25.90;1664.00;;;;;;5032254;28;20389;-73
2021/03/09 04:21:53;;;;;;;94.57;41.20;;;26.00;1612.80;;;;;;5032306;28;20358;-85
2021/03/09 04:24:19;;;;;;;76.40;35.03;;;25.90;1689.60;;;;;;5032188;28;20044;-73
2021/03/09 04:26:46;;;;;;;51.17;26.03;;;26.00;1612.80;;;;;;5033306;28;20087;-73
2021/03/09 04:29:14;;;;;;;38.00;18.27;;;26.00;1638.40;;;;;;5033341;28;20018;-73
2021/03/09 04:31:42;;;;;;;31.87;15.07;;;26.00;1638.40;;;;;;5033655;28;20462;-73
2021/03/09 04:34:09;;;;;;;26.87;15.20;;;26.00;1638.40;;;;;;5033235;28;20034;-73
2021/03/09 04:36:35;;;;;;;35.00;16.23;;;26.10;1612.80;;;;;;5033614;28;20025;-73
2021/03/09 04:39:04;;;;;;;45.33;20.87;;;26.10;1561.60;;;;;;5033537;28;20022;-85
2021/03/09 04:41:33;;;;;;;36.67;17.03;;;26.10;1664.00;;;;;;5033257;28;20528;-73
2021/03/09 04:44:00;;;;;;;26.07;13.27;;;26.10;1664.00;;;;;;5033378;28;20056;-73
2021/03/09 04:46:27;;;;;;;20.03;11.17;;;26.10;1664.00;;;;;;5033242;28;20044;-73
2021/03/09 04:48:53;;;;;;;25.80;12.60;;;26.00;1638.40;;;;;;5032013;28;20057;-85
2021/03/09 04:51:20;;;;;;;30.47;16.60;;;26.00;1561.60;;;;;;5033225;28;20037;-73
2021/03/09 04:53:47;;;;;;;55.93;27.47;;;26.10;1587.20;;;;;;5033308;28;20032;-73
2021/03/09 04:56:13;;;;;;;83.47;38.83;;;26.10;1612.80;;;;;;5033206;28;20029;-73
2021/03/09 04:58:39;;;;;;;74.67;34.93;;;26.10;1689.60;;;;;;5033419;28;20025;-73
2021/03/09 05:01:05;;;;;;;64.47;29.97;;;26.20;1612.80;;;;;;5033047;28;20581;-73
2021/03/09 05:03:32;;;;;;;53.80;20.70;;;26.30;1510.40;;;;;;5033154;28;20099;-73
2021/03/09 05:05:58;;;;;;;48.37;21.43;;;26.30;1612.80;;;;;;5031721;28;20064;-73
2021/03/09 05:08:24;;;;;;;57.20;26.23;;;26.30;1536.00;;;;;;5033220;28;20564;-73
2021/03/09 05:10:51;;;;;;;58.17;25.10;;;26.30;1638.40;;;;;;5032987;28;20025;-75
2021/03/09 05:13:18;;;;;;;68.77;28.00;;;26.30;1536.00;;;;;;5032990;28;20033;-73
2021/03/09 05:15:43;;;;;;;80.53;34.23;;;26.30;1561.60;;;;;;5031751;28;20076;-73
2021/03/09 05:18:10;;;;;;;78.30;32.60;;;26.30;1536.00;;;;;;5033271;28;20053;-73
2021/03/09 05:20:37;;;;;;;66.63;30.50;;;26.50;1587.20;;;;;;5031649;28;20029;-73
2021/03/09 05:23:03;;;;;;;104.97;47.43;;;26.30;1587.20;;;;;;5033061;28;20104;-73
2021/03/09 05:25:29;;;;;;;86.37;40.20;;;26.30;1638.40;;;;;;5032867;28;20116;-73
2021/03/09 05:27:55;;;;;;;67.47;28.90;;;26.30;1638.40;;;;;;5033288;28;20493;-74
2021/03/09 05:30:22;;;;;;;50.07;23.10;;;26.30;1638.40;;;;;;5033645;28;20022;-73
2021/03/09 05:32:48;;;;;;;56.37;22.00;;;26.30;1561.60;;;;;;5035197;28;20030;-75
2021/03/09 05:35:16;;;;;;;47.83;24.03;;;26.30;1612.80;;;;;;5035102;28;20025;-73
2021/03/09 05:37:43;;;;;;;56.33;25.50;;;26.40;1536.00;;;;;;5036302;28;20049;-73
2021/03/09 05:40:11;;;;;;;61.77;24.97;;;26.40;1587.20;;;;;;5035120;28;20377;-73
2021/03/09 05:42:37;;;;;;;48.73;24.00;;;26.40;1587.20;;;;;;5034984;28;20473;-73
2021/03/09 05:45:05;;;;;;;56.30;26.33;;;26.40;1536.00;;;;;;5034843;28;20022;-73
2021/03/09 05:47:32;;;;;;;57.03;27.13;;;26.50;1561.60;;;;;;5034780;28;20554;-73
2021/03/09 05:49:58;;;;;;;68.03;30.53;;;26.50;1459.20;;;;;;5034835;28;20505;-74
2021/03/09 05:52:25;;;;;;;72.37;36.97;;;51.20;1536.00;;;;;;5035962;28;20099;-73
2021/03/09 05:54:51;;;;;;;74.33;36.43;;;51.20;1638.40;;;;;;5034686;28;20477;-85
2021/03/09 05:57:17;;;;;;;63.90;30.43;;;51.20;1587.20;;;;;;5035907;28;20465;-73
2021/03/09 05:59:44;;;;;;;60.97;29.07;;;51.30;1510.40;;;;;;5035928;28;20021;-73
2021/03/09 06:02:10;;;;;;;49.83;27.23;;;51.30;1664.00;;;;;;5034525;28;20045;-86
2021/03/09 06:04:36;;;;;;;30.33;16.27;;;51.40;1612.80;;;;;;5034659;28;20029;-73
2021/03/09 06:07:03;;;;;;;30.57;15.93;;;51.40;1612.80;;;;;;5035666;28;20052;-74
2021/03/09 06:09:37;;;;;;;32.53;16.57;;;51.50;1536.00;;;;;;5034629;28;20025;-73
2021/03/09 06:12:16;;;;;;;37.37;17.33;;;51.40;1638.40;;;;;;5035728;28;20509;-74
2021/03/09 06:14:44;;;;;;;51.97;22.70;;;51.60;1561.60;;;;;;5035733;28;20466;-73
2021/03/09 06:17:21;;;;;;;137.77;54.73;;;51.60;1664.00;;;;;;5035614;28;20100;-86
2021/03/09 06:19:48;;;;;;;226.53;82.20;;;51.50;1689.60;;;;;;5035584;28;20105;-73
2021/03/09 06:22:16;;;;;;;225.93;80.63;;;51.70;1638.40;;;;;;5034352;28;20033;-85
2021/03/09 06:24:44;;;;;;;196.17;79.70;;;51.70;1536.00;;;;;;5034248;28;20025;-73
2021/03/09 06:27:30;;;;;;;169.60;63.57;;;51.70;1587.20;;;;;;5035504;28;20385;-84
2021/03/09 06:29:57;;;;;;;107.60;42.60;;;51.70;1638.40;;;;;;5034100;28;20084;-74
2021/03/09 06:32:25;;;;;;;91.03;36.10;;;51.80;1638.40;;;;;;5035356;28;20105;-73
2021/03/09 06:34:54;;;;;;;56.43;26.13;;;51.80;1587.20;;;;;;5035210;28;20018;-86
2021/03/09 06:37:26;;;;;;;46.13;22.40;;;51.90;1587.20;;;;;;5035328;28;20517;-74
2021/03/09 06:39:59;;;;;;;35.53;17.20;;;52.00;1587.20;;;;;;5035131;28;20029;-86
2021/03/09 06:42:34;;;;;;;42.35;21.27;;;52.10;1638.40;;;;;;5035200;28;20026;-74
2021/03/09 06:45:01;;;;;;;46.90;22.90;;;76.80;1612.80;;;;;;5035163;28;20079;-73
2021/03/09 06:47:32;;;;;;;53.20;25.20;;;76.90;1638.40;;;;;;5033649;28;20029;-73
2021/03/09 06:49:59;;;;;;;53.73;29.10;;;76.90;1638.40;;;;;;5033671;28;20481;-73
2021/03/09 06:52:25;;;;;;;51.67;24.87;;;76.90;1664.00;;;;;;5035238;28;20026;-74
2021/03/09 06:54:55;;;;;;;33.57;16.17;;;77.10;1587.20;;;;;;5033809;28;20095;-86
2021/03/09 06:57:22;;;;;;;22.43;11.60;;;77.30;1587.20;;;;;;5035086;28;20017;-74
2021/03/09 06:59:53;;;;;;;22.30;11.53;;;77.40;1612.80;;;;;;5034743;28;20060;-73
2021/03/09 07:02:29;;;;;;;19.80;11.30;;;77.50;1612.80;;;;;;5034111;28;20077;-86
2021/03/09 07:05:08;;;;;;;46.70;21.23;;;77.70;1638.40;;;;;;5034610;28;20076;-74
2021/03/09 07:07:39;;;;;;;55.13;28.27;;;102.50;1587.20;;;;;;5033352;28;20048;-73
2021/03/09 07:10:16;;;;;;;36.77;18.70;;;102.80;1561.60;;;;;;5034870;28;20081;-73
2021/03/09 07:12:45;;;;;;;74.43;34.10;;;103.20;1484.80;;;;;;5034599;28;20049;-73
2021/03/09 07:15:21;;;;;;;29.80;16.98;;;128.50;1459.20;;;;;;5034453;28;20024;-73
2021/03/09 07:17:51;;;;;;;68.00;35.85;;;153.70;1408.00;;;;;;5034396;28;20358;-72
2021/03/09 07:20:18;;;;;;;57.83;28.15;;;154.50;1331.20;;;;;;5034326;28;20488;-84
2021/03/09 07:22:45;;;;;;;26.75;15.15;;;179.50;1305.60;;;;;;5034301;28;20029;-74
2021/03/09 07:25:18;;;;;;;20.30;12.95;;;180.10;1228.80;;;;;;5034357;28;20033;-73
2021/03/09 07:27:52;;;;;;;23.52;14.18;;;205.10;1152.00;;;;;;5034203;28;20370;-73
2021/03/09 07:30:21;;;;;;;21.40;13.38;;;205.60;1126.40;;;;;;5032731;28;20029;-73
2021/03/09 07:32:48;;;;;;;23.25;10.95;;;230.40;1100.80;;;;;;5033984;28;20032;-73
2021/03/09 07:35:15;;;;;;;25.35;13.13;;;230.50;1075.20;;;;;;5032636;28;20075;-72
2021/03/09 07:37:41;;;;;;;26.65;14.38;;;230.90;1049.60;;;;;;5034386;28;20025;-73
2021/03/09 07:40:13;;;;;;;19.30;11.60;;;231.10;1049.60;;;;;;5034174;28;20057;-73
2021/03/09 07:42:42;;;;;;;16.75;9.25;;;231.30;1024.00;;;;;;5031965;28;20097;-73
2021/03/09 07:45:13;;;;;;;11.98;6.85;;;256.30;972.80;;;;;;5032844;28;20029;-73
2021/03/09 07:47:57;;;;;;;14.27;8.88;;;256.30;947.20;;;;;;5033636;28;20037;-80
2021/03/09 07:50:25;;;;;;;15.27;8.95;;;256.40;947.20;;;;;;5033358;28;20037;-79
2021/03/09 07:53:11;;;;;;;15.25;8.93;;;256.40;921.60;;;;;;5033183;28;20026;-74
2021/03/09 07:55:38;;;;;;;14.45;7.55;;;256.10;921.60;;;;;;5033730;28;20022;-75
2021/03/09 07:58:26;;;;;;;10.95;6.97;;;256.00;947.20;;;;;;5032192;28;20109;-72
2021/03/09 08:00:52;;;;;;;21.27;12.18;;;256.00;972.80;;;;;;5029021;28;20497;-79
2021/03/09 08:03:21;;;;;;;27.33;14.57;;;231.30;972.80;;;;;;5031043;28;20021;-72
2021/03/09 08:05:59;;;;;;;16.00;9.18;;;231.20;972.80;;;;;;5031792;28;20512;-72
2021/03/09 08:08:50;;;;;;;21.25;10.05;;;231.20;947.20;;;;;;5030328;28;20021;-72
2021/03/09 08:11:24;;;;;;;41.35;17.88;;;256.20;947.20;;;;;;5031608;28;20028;-72
2021/03/09 08:13:50;;;;;;;23.80;11.75;;;256.50;921.60;;;;;;5031610;28;20068;-72
2021/03/09 08:16:19;;;;;;;23.10;10.02;;;256.70;921.60;;;;;;5031073;28;20367;-74
2021/03/09 08:18:49;;;;;;;83.20;12.48;;;256.70;896.00;;;;;;5031629;28;20029;-75
2021/03/09 08:21:15;;;;;;;29.23;8.77;;;256.60;921.60;;;;;;5031504;28;20017;-76
2021/03/09 08:23:44;;;;;;;41.42;13.02;;;256.80;896.00;;;;;;5030609;28;20096;-73
2021/03/09 08:26:23;;;;;;;30.80;6.43;;;256.70;896.00;;;;;;5032615;28;20025;-73
2021/03/09 08:28:49;;;;;;;73.75;8.50;;;256.60;870.40;;;;;;5024650;28;20451;-75
2021/03/09 08:31:17;;;;;;;42.33;6.68;;;256.60;870.40;;;;;;5030504;28;20116;-77
2021/03/09 08:33:45;;;;;;;24.38;9.68;;;256.50;870.40;;;;;;5030192;28;20022;-79
2021/03/09 08:36:20;;;;;;;41.10;13.70;;;256.40;870.40;;;;;;5031312;28;20033;-75
2021/03/09 08:39:04;;;;;;;47.03;11.82;;;256.30;870.40;;;;;;5031329;28;20513;-79
2021/03/09 08:41:36;;;;;;;40.20;14.05;;;281.60;947.20;;;;;;5030225;28;20095;-80
2021/03/09 08:44:17;;;;;;;21.83;10.15;;;281.60;896.00;;;;;;5032105;28;20022;-79
2021/03/09 08:47:03;;;;;;;31.65;8.63;;;281.80;844.80;;;;;;5033225;28;20486;-74
2021/03/09 08:49:35;;;;;;;25.85;8.93;;;282.10;844.80;;;;;;5033369;28;20421;-75
2021/03/09 08:52:19;;;;;;;83.68;13.27;;;282.10;793.60;;;;;;5031886;28;20109;-74
2021/03/09 08:54:48;;;;;;;;;;;282.20;793.60;;;;;;5032280;28;20563;-75
2021/03/09 08:57:17;;;;;;;44.28;23.50;;;282.40;768.00;;;;;;5031832;28;19915;-74
2021/03/09 08:59:48;;;;;;;37.13;17.42;;;307.20;793.60;;;;;;5031796;28;20116;-73
2021/03/09 09:02:18;;;;;;;32.08;17.65;;;282.50;768.00;;;;;;5032931;28;20084;-75
2021/03/09 09:04:55;;;;;;;27.20;11.48;;;282.50;768.00;;;;;;5034276;28;20025;-75
2021/03/09 09:07:31;;;;;;;139.32;11.65;;;282.30;793.60;;;;;;5035110;28;20065;-77
2021/03/09 09:10:19;;;;;;;30.08;6.40;;;282.20;844.80;;;;;;5037027;28;20025;-75
2021/03/09 09:12:48;;;;;;;19.15;6.40;;;281.60;870.40;;;;;;5036761;28;20030;-72
2021/03/09 09:15:25;;;;;;;93.95;10.70;;;256.70;844.80;;;;;;5035367;28;20493;-73
2021/03/09 09:18:03;;;;;;;12.57;6.53;;;256.40;870.40;;;;;;5036695;28;20089;-72
2021/03/09 09:20:33;;;;;;;28.08;6.68;;;256.00;896.00;;;;;;5036616;28;20025;-72
2021/03/09 09:23:27;;;;;;;30.13;6.38;;;231.30;896.00;;;;;;5036538;28;20022;-72
2021/03/09 09:25:56;;;;;;;13.43;8.48;;;231.20;921.60;;;;;;5034959;28;20041;-72
2021/03/09 09:28:24;;;;;;;15.93;7.22;;;231.00;947.20;;;;;;5036408;28;20068;-72
2021/03/09 09:30:50;;;;;;;54.80;15.13;;;231.00;921.60;;;;;;5036491;28;20021;-85
2021/03/09 09:33:17;;;;;;;96.80;11.68;;;231.00;998.40;;;;;;5036716;28;20461;-71
2021/03/09 09:35:44;;;;;;;25.35;9.90;;;231.20;921.60;;;;;;5036296;28;20017;-76
2021/03/09 09:38:11;;;;;;;85.40;44.60;;;231.20;921.60;;;;;;5035047;28;20470;-71
2021/03/09 09:40:49;;;;;;;45.03;21.40;;;231.10;921.60;;;;;;5034949;28;20053;-79
2021/03/09 09:43:17;;;;;;;858.70;75.40;;;231.20;921.60;;;;;;5036318;28;20044;-88
